sensor_id;sensor_type;location;lat;lon;timestamp;pressure;altitude;pressure_sealevel;temperature;humidity
75886;BME280;64561;44.018;10.144;2023-08-12T00:00:01;101981.69;;;23.40;66.22
75886;BME280;64561;44.018;10.144;2023-08-12T00:02:43;101976.59;;;23.27;66.10
75886;BME280;64561;44.018;10.144;2023-08-12T00:05:11;101981.88;;;23.21;66.76
75886;BME280;64561;44.018;10.144;2023-08-12T00:07:40;101981.88;;;23.21;67.21
75886;BME280;64561;44.018;10.144;2023-08-12T00:10:09;101982.78;;;23.20;67.38
75886;BME280;64561;44.018;10.144;2023-08-12T00:12:38;101980.16;;;23.20;67.61
75886;BME280;64561;44.018;10.144;2023-08-12T00:15:09;101979.28;;;23.21;68.34
75886;BME280;64561;44.018;10.144;2023-08-12T00:17:40;101982.81;;;23.16;67.71
75886;BME280;64561;44.018;10.144;2023-08-12T00:20:15;101987.22;;;23.09;68.67
75886;BME280;64561;44.018;10.144;2023-08-12T00:22:43;101982.91;;;23.03;68.85
75886;BME280;64561;44.018;10.144;2023-08-12T00:25:14;101988.19;;;23.00;69.31
75886;BME280;64561;44.018;10.144;2023-08-12T00:27:42;101988.19;;;23.00;69.07
75886;BME280;64561;44.018;10.144;2023-08-12T00:30:10;101989.91;;;22.98;69.47
75886;BME280;64561;44.018;10.144;2023-08-12T00:32:38;101987.38;;;22.91;69.73
75886;BME280;64561;44.018;10.144;2023-08-12T00:35:07;101980.44;;;22.87;69.97
75886;BME280;64561;44.018;10.144;2023-08-12T00:37:34;101983.94;;;22.84;70.47
75886;BME280;64561;44.018;10.144;2023-08-12T00:40:01;101980.47;;;22.83;71.09
75886;BME280;64561;44.018;10.144;2023-08-12T00:42:31;101976.91;;;22.91;71.30
75886;BME280;64561;44.018;10.144;2023-08-12T00:44:59;101979.50;;;22.94;72.16
75886;BME280;64561;44.018;10.144;2023-08-12T00:47:31;101974.28;;;22.94;72.47
75886;BME280;64561;44.018;10.144;2023-08-12T00:49:59;101964.75;;;22.96;72.36
75886;BME280;64561;44.018;10.144;2023-08-12T00:52:30;101965.59;;;22.93;72.83
75886;BME280;64561;44.018;10.144;2023-08-12T00:54:58;101966.44;;;22.97;72.51
75886;BME280;64561;44.018;10.144;2023-08-12T00:57:26;101958.59;;;23.00;72.40
75886;BME280;64561;44.018;10.144;2023-08-12T00:59:54;101958.59;;;22.98;72.77
75886;BME280;64561;44.018;10.144;2023-08-12T01:02:25;101955.16;;;22.93;72.73
75886;BME280;64561;44.018;10.144;2023-08-12T01:04:52;101951.69;;;22.96;72.89
75886;BME280;64561;44.018;10.144;2023-08-12T01:07:20;101950.75;;;22.98;72.80
75886;BME280;64561;44.018;10.144;2023-08-12T01:09:47;101957.72;;;22.99;72.98
75886;BME280;64561;44.018;10.144;2023-08-12T01:12:37;101951.69;;;22.94;72.42
75886;BME280;64561;44.018;10.144;2023-08-12T01:15:11;101942.09;;;22.92;73.05
75886;BME280;64561;44.018;10.144;2023-08-12T01:17:42;101949.09;;;22.90;72.81
75886;BME280;64561;44.018;10.144;2023-08-12T01:20:14;101952.59;;;22.86;73.46
75886;BME280;64561;44.018;10.144;2023-08-12T01:22:44;101954.34;;;22.85;73.37
75886;BME280;64561;44.018;10.144;2023-08-12T01:25:14;101949.13;;;22.87;72.96
75886;BME280;64561;44.018;10.144;2023-08-12T01:27:42;101953.44;;;22.89;73.15
75886;BME280;64561;44.018;10.144;2023-08-12T01:30:09;101951.69;;;22.88;73.23
75886;BME280;64561;44.018;10.144;2023-08-12T01:35:44;101955.22;;;22.87;73.79
75886;BME280;64561;44.018;10.144;2023-08-12T01:38:15;101958.69;;;22.83;73.33
75886;BME280;64561;44.018;10.144;2023-08-12T01:40:44;101961.34;;;22.81;73.71
75886;BME280;64561;44.018;10.144;2023-08-12T01:43:13;101956.16;;;22.78;73.69
75886;BME280;64561;44.018;10.144;2023-08-12T01:45:42;101963.09;;;22.81;74.08
75886;BME280;64561;44.018;10.144;2023-08-12T01:48:10;101958.72;;;22.80;73.75
75886;BME280;64561;44.018;10.144;2023-08-12T01:50:38;101960.47;;;22.81;73.90
75886;BME280;64561;44.018;10.144;2023-08-12T01:53:05;101958.78;;;22.75;73.87
75886;BME280;64561;44.018;10.144;2023-08-12T01:55:36;101952.72;;;22.70;74.01
75886;BME280;64561;44.018;10.144;2023-08-12T01:58:04;101953.66;;;22.65;73.84
75886;BME280;64561;44.018;10.144;2023-08-12T02:00:32;101955.50;;;22.53;75.00
75886;BME280;64561;44.018;10.144;2023-08-12T02:02:59;101949.44;;;22.47;75.30
75886;BME280;64561;44.018;10.144;2023-08-12T02:05:26;101946.81;;;22.51;75.19
75886;BME280;64561;44.018;10.144;2023-08-12T02:07:54;101949.41;;;22.50;75.42
75886;BME280;64561;44.018;10.144;2023-08-12T02:10:21;101949.44;;;22.47;75.27
75886;BME280;64561;44.018;10.144;2023-08-12T02:12:48;101946.91;;;22.39;75.40
75886;BME280;64561;44.018;10.144;2023-08-12T02:15:17;101942.53;;;22.40;75.25
75886;BME280;64561;44.018;10.144;2023-08-12T02:17:44;101951.34;;;22.26;75.87
75886;BME280;64561;44.018;10.144;2023-08-12T02:20:12;101953.03;;;22.30;76.15
75886;BME280;64561;44.018;10.144;2023-08-12T02:22:39;101947.78;;;22.35;76.18
75886;BME280;64561;44.018;10.144;2023-08-12T02:25:07;101936.47;;;22.36;75.63
75886;BME280;64561;44.018;10.144;2023-08-12T02:27:34;101940.84;;;22.34;75.46
75886;BME280;64561;44.018;10.144;2023-08-12T02:30:03;101933.91;;;22.33;76.05
75886;BME280;64561;44.018;10.144;2023-08-12T02:32:32;101937.38;;;22.29;75.61
75886;BME280;64561;44.018;10.144;2023-08-12T02:35:00;101938.28;;;22.25;76.20
75886;BME280;64561;44.018;10.144;2023-08-12T02:37:30;101933.91;;;22.28;75.95
75886;BME280;64561;44.018;10.144;2023-08-12T02:39:57;101940.91;;;22.26;76.03
75886;BME280;64561;44.018;10.144;2023-08-12T02:42:24;101941.81;;;22.21;76.69
75886;BME280;64561;44.018;10.144;2023-08-12T02:44:52;101947.00;;;22.19;76.24
75886;BME280;64561;44.018;10.144;2023-08-12T02:47:20;101942.72;;;22.09;77.23
75886;BME280;64561;44.018;10.144;2023-08-12T02:49:47;101941.88;;;22.02;77.24
75886;BME280;64561;44.018;10.144;2023-08-12T02:52:14;101947.94;;;22.01;77.60
75886;BME280;64561;44.018;10.144;2023-08-12T02:54:41;101949.69;;;22.05;77.03
75886;BME280;64561;44.018;10.144;2023-08-12T02:57:09;101944.44;;;22.10;76.93
75886;BME280;64561;44.018;10.144;2023-08-12T02:59:36;101959.22;;;22.09;76.96
75886;BME280;64561;44.018;10.144;2023-08-12T03:02:04;101954.88;;;22.07;77.00
75886;BME280;64561;44.018;10.144;2023-08-12T03:04:31;101951.41;;;22.02;77.64
75886;BME280;64561;44.018;10.144;2023-08-12T03:06:59;101953.19;;;22.03;77.44
75886;BME280;64561;44.018;10.144;2023-08-12T03:09:26;101957.50;;;22.07;77.26
75886;BME280;64561;44.018;10.144;2023-08-12T03:11:53;101962.75;;;22.02;77.17
75886;BME280;64561;44.018;10.144;2023-08-12T03:14:21;101960.13;;;22.04;77.21
75886;BME280;64561;44.018;10.144;2023-08-12T03:16:48;101960.94;;;22.10;77.50
75886;BME280;64561;44.018;10.144;2023-08-12T03:19:16;101949.59;;;22.16;77.56
75886;BME280;64561;44.018;10.144;2023-08-12T03:21:44;101951.34;;;22.15;77.44
75886;BME280;64561;44.018;10.144;2023-08-12T03:24:23;101950.50;;;22.18;76.91
75886;BME280;64561;44.018;10.144;2023-08-12T03:26:50;101953.97;;;22.14;77.23
75886;BME280;64561;44.018;10.144;2023-08-12T03:29:17;101956.63;;;22.05;77.72
75886;BME280;64561;44.018;10.144;2023-08-12T03:31:45;101948.81;;;22.02;77.93
75886;BME280;64561;44.018;10.144;2023-08-12T03:34:13;101951.44;;;21.99;77.88
75886;BME280;64561;44.018;10.144;2023-08-12T03:36:42;101945.38;;;21.97;78.07
75886;BME280;64561;44.018;10.144;2023-08-12T03:39:10;101945.38;;;22.00;77.88
75886;BME280;64561;44.018;10.144;2023-08-12T03:41:37;101948.84;;;21.96;78.59
75886;BME280;64561;44.018;10.144;2023-08-12T03:44:06;101944.53;;;21.95;78.58
75886;BME280;64561;44.018;10.144;2023-08-12T03:46:33;101941.91;;;21.98;78.38
75886;BME280;64561;44.018;10.144;2023-08-12T03:49:01;101940.16;;;22.00;78.52
75886;BME280;64561;44.018;10.144;2023-08-12T03:51:30;101939.25;;;22.05;78.36
75886;BME280;64561;44.018;10.144;2023-08-12T03:53:58;101934.88;;;22.07;78.20
75886;BME280;64561;44.018;10.144;2023-08-12T03:56:26;101940.09;;;22.07;79.13
75886;BME280;64561;44.018;10.144;2023-08-12T03:58:53;101933.19;;;22.03;79.21
75886;BME280;64561;44.018;10.144;2023-08-12T04:01:22;101936.66;;;22.04;78.69
75886;BME280;64561;44.018;10.144;2023-08-12T04:03:49;101936.63;;;22.08;78.72
75886;BME280;64561;44.018;10.144;2023-08-12T04:06:18;101937.50;;;22.09;78.64
75886;BME280;64561;44.018;10.144;2023-08-12T04:08:45;101934.06;;;22.01;79.26
75886;BME280;64561;44.018;10.144;2023-08-12T04:11:13;101928.00;;;21.97;79.34
75886;BME280;64561;44.018;10.144;2023-08-12T04:13:41;101931.47;;;21.96;79.57
75886;BME280;64561;44.018;10.144;2023-08-12T04:16:12;101928.06;;;21.83;79.98
75886;BME280;64561;44.018;10.144;2023-08-12T04:18:39;101929.81;;;21.83;80.00
75886;BME280;64561;44.018;10.144;2023-08-12T04:21:06;101926.31;;;21.85;80.14
75886;BME280;64561;44.018;10.144;2023-08-12T04:23:34;101932.47;;;21.75;79.68
75886;BME280;64561;44.018;10.144;2023-08-12T04:26:02;101926.38;;;21.75;79.54
75886;BME280;64561;44.018;10.144;2023-08-12T04:28:30;101926.34;;;21.79;79.37
75886;BME280;64561;44.018;10.144;2023-08-12T04:30:57;101922.03;;;21.74;78.23
75886;BME280;64561;44.018;10.144;2023-08-12T04:33:26;101923.78;;;21.76;78.86
75886;BME280;64561;44.018;10.144;2023-08-12T04:35:53;101917.66;;;21.80;78.46
75886;BME280;64561;44.018;10.144;2023-08-12T04:38:22;101922.88;;;21.80;78.21
75886;BME280;64561;44.018;10.144;2023-08-12T04:40:54;101922.91;;;21.76;78.13
75886;BME280;64561;44.018;10.144;2023-08-12T04:43:23;101917.69;;;21.76;78.07
75886;BME280;64561;44.018;10.144;2023-08-12T04:45:50;101913.34;;;21.76;77.84
75886;BME280;64561;44.018;10.144;2023-08-12T04:48:20;101920.25;;;21.80;78.04
75886;BME280;64561;44.018;10.144;2023-08-12T04:50:48;101915.91;;;21.82;77.51
75886;BME280;64561;44.018;10.144;2023-08-12T04:53:17;101923.72;;;21.85;77.99
75886;BME280;64561;44.018;10.144;2023-08-12T04:55:50;101909.81;;;21.86;77.57
75886;BME280;64561;44.018;10.144;2023-08-12T04:58:19;101906.38;;;21.81;78.01
75886;BME280;64561;44.018;10.144;2023-08-12T05:00:48;101918.50;;;21.84;77.36
75886;BME280;64561;44.018;10.144;2023-08-12T05:03:16;101922.84;;;21.85;77.64
75886;BME280;64561;44.018;10.144;2023-08-12T05:05:49;101920.25;;;21.83;78.06
75886;BME280;64561;44.018;10.144;2023-08-12T05:08:16;101927.25;;;21.74;78.81
75886;BME280;64561;44.018;10.144;2023-08-12T05:10:47;101919.44;;;21.69;79.19
75886;BME280;64561;44.018;10.144;2023-08-12T05:13:14;101924.66;;;21.66;79.67
75886;BME280;64561;44.018;10.144;2023-08-12T05:15:46;101917.75;;;21.66;79.21
75886;BME280;64561;44.018;10.144;2023-08-12T05:18:16;101916.00;;;21.65;78.83
75886;BME280;64561;44.018;10.144;2023-08-12T05:20:45;101922.06;;;21.63;79.29
75886;BME280;64561;44.018;10.144;2023-08-12T05:23:14;101919.47;;;21.60;79.90
75886;BME280;64561;44.018;10.144;2023-08-12T05:25:42;101922.09;;;21.57;80.29
75886;BME280;64561;44.018;10.144;2023-08-12T05:28:09;101929.88;;;21.66;80.33
75886;BME280;64561;44.018;10.144;2023-08-12T05:30:37;101928.16;;;21.69;80.78
75886;BME280;64561;44.018;10.144;2023-08-12T05:33:08;101929.84;;;21.77;80.85
75886;BME280;64561;44.018;10.144;2023-08-12T05:35:36;101933.28;;;21.85;80.74
75886;BME280;64561;44.018;10.144;2023-08-12T05:38:03;101939.31;;;21.91;80.46
75886;BME280;64561;44.018;10.144;2023-08-12T05:40:31;101938.41;;;21.99;80.04
75886;BME280;64561;44.018;10.144;2023-08-12T05:43:00;101933.19;;;22.03;79.78
75886;BME280;64561;44.018;10.144;2023-08-12T05:45:30;101932.25;;;22.12;79.03
75886;BME280;64561;44.018;10.144;2023-08-12T05:48:02;101927.03;;;22.15;76.28
75886;BME280;64561;44.018;10.144;2023-08-12T05:50:32;101934.81;;;22.27;76.18
75886;BME280;64561;44.018;10.144;2023-08-12T05:52:59;101928.63;;;22.37;75.92
75886;BME280;64561;44.018;10.144;2023-08-12T05:55:26;101933.78;;;22.48;76.71
75886;BME280;64561;44.018;10.144;2023-08-12T05:57:54;101930.25;;;22.52;76.15
75886;BME280;64561;44.018;10.144;2023-08-12T06:00:21;101939.81;;;22.56;76.60
75886;BME280;64561;44.018;10.144;2023-08-12T06:02:48;101934.50;;;22.64;76.41
75886;BME280;64561;44.018;10.144;2023-08-12T06:05:18;101948.34;;;22.75;76.32
75886;BME280;64561;44.018;10.144;2023-08-12T06:07:46;101951.72;;;22.85;76.06
75886;BME280;64561;44.018;10.144;2023-08-12T06:10:13;101949.94;;;22.93;76.66
75886;BME280;64561;44.018;10.144;2023-08-12T06:12:41;101954.22;;;23.00;75.80
75886;BME280;64561;44.018;10.144;2023-08-12T06:15:10;101950.66;;;23.09;75.71
75886;BME280;64561;44.018;10.144;2023-08-12T06:17:38;101957.56;;;23.18;75.87
75886;BME280;64561;44.018;10.144;2023-08-12T06:20:06;101955.75;;;23.23;74.30
75886;BME280;64561;44.018;10.144;2023-08-12T06:22:33;101955.66;;;23.31;73.36
75886;BME280;64561;44.018;10.144;2023-08-12T06:25:00;101959.06;;;23.39;73.23
75886;BME280;64561;44.018;10.144;2023-08-12T06:27:29;101955.50;;;23.46;72.31
75886;BME280;64561;44.018;10.144;2023-08-12T06:29:56;101962.41;;;23.51;71.07
75886;BME280;64561;44.018;10.144;2023-08-12T06:32:23;101959.75;;;23.56;72.16
75886;BME280;64561;44.018;10.144;2023-08-12T06:34:51;101959.59;;;23.67;71.94
75886;BME280;64561;44.018;10.144;2023-08-12T06:37:18;101952.56;;;23.73;71.47
75886;BME280;64561;44.018;10.144;2023-08-12T06:39:45;101951.66;;;23.78;71.56
75886;BME280;64561;44.018;10.144;2023-08-12T06:42:12;101942.84;;;23.86;68.20
75886;BME280;64561;44.018;10.144;2023-08-12T06:44:40;101948.00;;;23.91;69.26
75886;BME280;64561;44.018;10.144;2023-08-12T06:47:07;101941.84;;;23.95;70.53
75886;BME280;64561;44.018;10.144;2023-08-12T06:49:34;101943.34;;;24.11;71.58
75886;BME280;64561;44.018;10.144;2023-08-12T06:52:02;101934.50;;;24.18;71.60
75886;BME280;64561;44.018;10.144;2023-08-12T06:54:29;101939.59;;;24.29;71.55
75886;BME280;64561;44.018;10.144;2023-08-12T06:56:56;101935.94;;;24.41;70.99
75886;BME280;64561;44.018;10.144;2023-08-12T06:59:23;101930.59;;;24.49;70.74
75886;BME280;64561;44.018;10.144;2023-08-12T07:01:51;101928.75;;;24.55;69.98
75886;BME280;64561;44.018;10.144;2023-08-12T07:04:18;101933.03;;;24.59;69.17
75886;BME280;64561;44.018;10.144;2023-08-12T07:06:45;101928.66;;;24.60;68.62
75886;BME280;64561;44.018;10.144;2023-08-12T07:09:12;101933.88;;;24.61;67.33
75886;BME280;64561;44.018;10.144;2023-08-12T07:11:39;101924.13;;;24.70;67.01
75886;BME280;64561;44.018;10.144;2023-08-12T07:14:07;101923.16;;;24.77;64.68
75886;BME280;64561;44.018;10.144;2023-08-12T07:16:34;101932.66;;;24.81;63.77
75886;BME280;64561;44.018;10.144;2023-08-12T07:19:01;101925.56;;;24.89;61.58
75886;BME280;64561;44.018;10.144;2023-08-12T07:21:28;101921.00;;;25.00;61.18
75886;BME280;64561;44.018;10.144;2023-08-12T07:23:58;101926.91;;;25.10;59.55
75886;BME280;64561;44.018;10.144;2023-08-12T07:26:31;101923.19;;;25.23;59.51
75886;BME280;64561;44.018;10.144;2023-08-12T07:28:58;101926.59;;;25.27;59.38
75886;BME280;64561;44.018;10.144;2023-08-12T07:31:25;101928.34;;;25.28;59.22
75886;BME280;64561;44.018;10.144;2023-08-12T07:33:53;101924.75;;;25.32;60.51
75886;BME280;64561;44.018;10.144;2023-08-12T07:36:20;101924.56;;;25.43;59.32
75886;BME280;64561;44.018;10.144;2023-08-12T07:38:47;101935.50;;;25.62;58.97
75886;BME280;64561;44.018;10.144;2023-08-12T07:41:14;101931.91;;;25.67;58.40
75886;BME280;64561;44.018;10.144;2023-08-12T07:43:47;101937.88;;;25.74;59.41
75886;BME280;64561;44.018;10.144;2023-08-12T07:46:14;101927.31;;;25.77;60.14
75886;BME280;64561;44.018;10.144;2023-08-12T07:48:42;101916.88;;;25.75;60.99
75886;BME280;64561;44.018;10.144;2023-08-12T07:51:09;101932.31;;;25.91;61.06
75886;BME280;64561;44.018;10.144;2023-08-12T07:53:36;101937.38;;;25.98;61.10
75886;BME280;64561;44.018;10.144;2023-08-12T07:56:03;101934.53;;;26.08;61.70
75886;BME280;64561;44.018;10.144;2023-08-12T07:58:31;101925.56;;;26.18;61.05
75886;BME280;64561;44.018;10.144;2023-08-12T08:00:58;101922.66;;;26.30;60.50
75886;BME280;64561;44.018;10.144;2023-08-12T08:03:25;101930.38;;;26.35;60.19
75886;BME280;64561;44.018;10.144;2023-08-12T08:05:52;101920.88;;;26.31;59.68
75886;BME280;64561;44.018;10.144;2023-08-12T08:08:23;101922.50;;;26.36;59.83
75886;BME280;64561;44.018;10.144;2023-08-12T08:10:53;101914.38;;;26.45;59.41
75886;BME280;64561;44.018;10.144;2023-08-12T08:13:22;101917.44;;;26.64;58.72
75886;BME280;64561;44.018;10.144;2023-08-12T08:15:49;101921.59;;;26.73;58.70
75886;BME280;64561;44.018;10.144;2023-08-12T08:18:17;101921.25;;;26.85;60.05
75886;BME280;64561;44.018;10.144;2023-08-12T08:20:44;101916.78;;;26.89;60.15
75886;BME280;64561;44.018;10.144;2023-08-12T08:23:12;101921.72;;;27.01;60.81
75886;BME280;64561;44.018;10.144;2023-08-12T08:25:40;101918.13;;;27.04;60.11
75886;BME280;64561;44.018;10.144;2023-08-12T08:28:07;101919.81;;;27.06;60.42
75886;BME280;64561;44.018;10.144;2023-08-12T08:30:35;101922.16;;;27.19;58.16
75886;BME280;64561;44.018;10.144;2023-08-12T08:33:03;101924.41;;;27.32;58.47
75886;BME280;64561;44.018;10.144;2023-08-12T08:35:30;101922.91;;;27.53;56.62
75886;BME280;64561;44.018;10.144;2023-08-12T08:37:57;101924.41;;;27.62;56.64
75886;BME280;64561;44.018;10.144;2023-08-12T08:40:26;101921.78;;;27.62;56.55
75886;BME280;64561;44.018;10.144;2023-08-12T08:42:53;101921.69;;;27.65;56.27
75886;BME280;64561;44.018;10.144;2023-08-12T08:45:22;101912.69;;;27.72;56.51
75886;BME280;64561;44.018;10.144;2023-08-12T08:47:52;101920.34;;;27.81;54.76
75886;BME280;64561;44.018;10.144;2023-08-12T08:50:20;101923.63;;;27.88;53.99
75886;BME280;64561;44.018;10.144;2023-08-12T08:52:49;101928.56;;;27.99;53.91
75886;BME280;64561;44.018;10.144;2023-08-12T08:55:18;101932.03;;;28.01;54.23
75886;BME280;64561;44.018;10.144;2023-08-12T08:57:49;101937.38;;;27.98;53.94
75886;BME280;64561;44.018;10.144;2023-08-12T09:00:17;101934.50;;;28.06;53.27
75886;BME280;64561;44.018;10.144;2023-08-12T09:02:49;101929.41;;;28.01;52.86
75886;BME280;64561;44.018;10.144;2023-08-12T09:05:18;101937.19;;;28.04;51.75
75886;BME280;64561;44.018;10.144;2023-08-12T09:07:49;101937.47;;;27.95;50.70
75886;BME280;64561;44.018;10.144;2023-08-12T09:10:18;101942.63;;;27.98;52.47
75886;BME280;64561;44.018;10.144;2023-08-12T09:12:47;101939.00;;;28.02;51.63
75886;BME280;64561;44.018;10.144;2023-08-12T09:15:16;101942.47;;;28.04;50.00
75886;BME280;64561;44.018;10.144;2023-08-12T09:17:44;101943.81;;;28.16;51.97
75886;BME280;64561;44.018;10.144;2023-08-12T09:20:11;101947.94;;;28.24;52.05
75886;BME280;64561;44.018;10.144;2023-08-12T09:22:40;101950.47;;;28.27;50.33
75886;BME280;64561;44.018;10.144;2023-08-12T09:25:09;101952.81;;;28.37;49.36
75886;BME280;64561;44.018;10.144;2023-08-12T09:27:37;101953.94;;;28.30;47.81
75886;BME280;64561;44.018;10.144;2023-08-12T09:30:06;101947.75;;;28.31;48.73
75886;BME280;64561;44.018;10.144;2023-08-12T09:32:33;101946.03;;;28.30;49.60
75886;BME280;64561;44.018;10.144;2023-08-12T09:35:07;101951.09;;;28.36;49.57
75886;BME280;64561;44.018;10.144;2023-08-12T09:37:42;101948.19;;;28.45;49.89
75886;BME280;64561;44.018;10.144;2023-08-12T09:40:09;101948.28;;;28.42;49.67
75886;BME280;64561;44.018;10.144;2023-08-12T09:42:45;101942.78;;;28.49;49.47
75886;BME280;64561;44.018;10.144;2023-08-12T09:45:14;101941.97;;;28.47;49.40
75886;BME280;64561;44.018;10.144;2023-08-12T09:47:44;101948.16;;;28.46;49.21
75886;BME280;64561;44.018;10.144;2023-08-12T09:50:11;101935.63;;;28.53;48.58
75886;BME280;64561;44.018;10.144;2023-08-12T09:52:40;101932.25;;;28.49;49.52
75886;BME280;64561;44.018;10.144;2023-08-12T09:55:08;101940.91;;;28.53;52.57
75886;BME280;64561;44.018;10.144;2023-08-12T09:57:36;101937.88;;;28.64;49.42
75886;BME280;64561;44.018;10.144;2023-08-12T10:00:08;101930.81;;;28.66;49.45
75886;BME280;64561;44.018;10.144;2023-08-12T10:02:48;101935.94;;;28.70;47.42
75886;BME280;64561;44.018;10.144;2023-08-12T10:05:19;101937.88;;;28.64;46.85
75886;BME280;64561;44.018;10.144;2023-08-12T10:07:48;101939.78;;;28.60;46.26
75886;BME280;64561;44.018;10.144;2023-08-12T10:10:15;101931.97;;;28.57;46.49
75886;BME280;64561;44.018;10.144;2023-08-12T10:12:43;101933.50;;;28.64;47.76
75886;BME280;64561;44.018;10.144;2023-08-12T10:15:11;101929.72;;;28.71;47.03
75886;BME280;64561;44.018;10.144;2023-08-12T10:17:40;101931.34;;;28.76;47.14
75886;BME280;64561;44.018;10.144;2023-08-12T10:20:17;101930.88;;;28.89;46.14
75886;BME280;64561;44.018;10.144;2023-08-12T10:22:49;101920.25;;;28.91;43.35
75886;BME280;64561;44.018;10.144;2023-08-12T10:25:18;101930.59;;;28.97;43.95
75886;BME280;64561;44.018;10.144;2023-08-12T10:27:50;101918.31;;;28.96;39.80
75886;BME280;64561;44.018;10.144;2023-08-12T10:30:17;101919.94;;;29.00;42.65
75886;BME280;64561;44.018;10.144;2023-08-12T10:32:45;101916.22;;;29.07;43.38
75886;BME280;64561;44.018;10.144;2023-08-12T10:35:13;101918.72;;;29.10;43.57
75886;BME280;64561;44.018;10.144;2023-08-12T10:37:40;101913.34;;;29.13;45.37
75886;BME280;64561;44.018;10.144;2023-08-12T10:40:20;101917.34;;;29.24;42.23
75886;BME280;64561;44.018;10.144;2023-08-12T10:42:49;101909.31;;;29.27;41.74
75886;BME280;64561;44.018;10.144;2023-08-12T10:45:17;101911.13;;;29.26;38.09
75886;BME280;64561;44.018;10.144;2023-08-12T10:48:10;101904.16;;;29.24;40.44
75886;BME280;64561;44.018;10.144;2023-08-12T10:50:43;101904.06;;;29.27;41.07
75886;BME280;64561;44.018;10.144;2023-08-12T10:53:54;101900.69;;;29.23;41.26
75886;BME280;64561;44.018;10.144;2023-08-12T10:56:16;101904.53;;;29.38;41.86
75886;BME280;64561;44.018;10.144;2023-08-12T10:58:46;101898.97;;;29.46;42.12
75886;BME280;64561;44.018;10.144;2023-08-12T11:01:17;101895.69;;;29.62;38.76
75886;BME280;64561;44.018;10.144;2023-08-12T11:03:50;101884.28;;;29.62;40.10
75886;BME280;64561;44.018;10.144;2023-08-12T11:06:19;101890.69;;;29.55;40.25
75886;BME280;64561;44.018;10.144;2023-08-12T11:08:56;101885.53;;;29.52;37.40
75886;BME280;64561;44.018;10.144;2023-08-12T11:11:23;101881.97;;;29.53;37.54
75886;BME280;64561;44.018;10.144;2023-08-12T11:13:56;101878.97;;;29.64;37.76
75886;BME280;64561;44.018;10.144;2023-08-12T11:16:36;101876.09;;;29.70;39.00
75886;BME280;64561;44.018;10.144;2023-08-12T11:19:04;101871.47;;;29.75;38.22
75886;BME280;64561;44.018;10.144;2023-08-12T11:21:31;101870.44;;;29.79;39.28
75886;BME280;64561;44.018;10.144;2023-08-12T11:23:59;101859.50;;;29.88;36.16
75886;BME280;64561;44.018;10.144;2023-08-12T11:26:26;101862.03;;;29.91;36.62
75886;BME280;64561;44.018;10.144;2023-08-12T11:28:53;101860.03;;;29.96;36.05
75886;BME280;64561;44.018;10.144;2023-08-12T11:31:21;101860.03;;;29.96;37.38
75886;BME280;64561;44.018;10.144;2023-08-12T11:33:49;101858.41;;;29.94;35.86
75886;BME280;64561;44.018;10.144;2023-08-12T11:36:16;101854.75;;;29.96;36.89
75886;BME280;64561;44.018;10.144;2023-08-12T11:38:43;101858.88;;;30.03;37.88
75886;BME280;64561;44.018;10.144;2023-08-12T11:41:11;101851.56;;;30.10;36.81
75886;BME280;64561;44.018;10.144;2023-08-12T11:43:39;101850.38;;;30.17;35.34
75886;BME280;64561;44.018;10.144;2023-08-12T11:46:09;101848.44;;;30.22;35.03
75886;BME280;64561;44.018;10.144;2023-08-12T11:48:36;101850.94;;;30.25;35.65
75886;BME280;64561;44.018;10.144;2023-08-12T11:51:03;101849.09;;;30.27;34.55
75886;BME280;64561;44.018;10.144;2023-08-12T11:53:31;101839.25;;;30.31;36.09
75886;BME280;64561;44.018;10.144;2023-08-12T11:55:58;101843.16;;;30.43;35.56
75886;BME280;64561;44.018;10.144;2023-08-12T11:58:25;101841.09;;;30.49;35.48
75886;BME280;64561;44.018;10.144;2023-08-12T12:01:05;101842.91;;;30.49;35.46
75886;BME280;64561;44.018;10.144;2023-08-12T12:03:34;101842.03;;;30.48;35.39
75886;BME280;64561;44.018;10.144;2023-08-12T12:06:01;101849.16;;;30.46;37.29
75886;BME280;64561;44.018;10.144;2023-08-12T12:08:31;101842.09;;;30.47;38.53
75886;BME280;64561;44.018;10.144;2023-08-12T12:11:05;101842.19;;;30.45;37.09
75886;BME280;64561;44.018;10.144;2023-08-12T12:13:34;101835.78;;;30.51;36.85
75886;BME280;64561;44.018;10.144;2023-08-12T12:16:01;101839.19;;;30.53;36.56
75886;BME280;64561;44.018;10.144;2023-08-12T12:18:28;101832.91;;;30.56;35.16
75886;BME280;64561;44.018;10.144;2023-08-12T12:20:57;101843.22;;;30.62;37.57
75886;BME280;64561;44.018;10.144;2023-08-12T12:23:29;101846.78;;;30.61;34.62
75886;BME280;64561;44.018;10.144;2023-08-12T12:25:58;101837.13;;;30.60;33.58
75886;BME280;64561;44.018;10.144;2023-08-12T12:28:26;101839.97;;;30.55;34.55
75886;BME280;64561;44.018;10.144;2023-08-12T12:30:54;101836.22;;;30.61;33.19
75886;BME280;64561;44.018;10.144;2023-08-12T12:33:21;101836.28;;;30.59;33.99
75886;BME280;64561;44.018;10.144;2023-08-12T12:35:48;101838.41;;;30.51;35.45
75886;BME280;64561;44.018;10.144;2023-08-12T12:38:26;101827.88;;;30.49;35.30
75886;BME280;64561;44.018;10.144;2023-08-12T12:40:53;101835.81;;;30.49;35.99
75886;BME280;64561;44.018;10.144;2023-08-12T12:43:20;101830.53;;;30.49;34.73
75886;BME280;64561;44.018;10.144;2023-08-12T12:45:48;101841.38;;;30.64;35.88
75886;BME280;64561;44.018;10.144;2023-08-12T12:48:15;101833.34;;;30.65;35.11
75886;BME280;64561;44.018;10.144;2023-08-12T12:50:42;101842.94;;;30.68;35.41